Time;durP1;ratioP1;P1;durP2;ratioP2;P2;SDS_P1;SDS_P2;PMS_P1;PMS_P2;Temp;Humidity;BMP_temperature;BMP_pressure;BME280_temperature;BME280_humidity;BME280_pressure;Samples;Min_cycle;Max_cycle;Signal;HPM_P1;HPM_P2
2022/08/02 00:00:38;;;;;;;3.33;3.03;;;;;;;23.36;52.75;98071.63;8036127;29;20240;-77
2022/08/02 00:04:41;;;;;;;3.77;3.20;;;;;;;23.28;52.90;98072.34;8036341;29;20242;-77
2022/08/02 00:08:44;;;;;;;3.43;3.10;;;;;;;23.32;53.02;98064.97;8036018;29;20242;-77
2022/08/02 00:12:48;;;;;;;5.17;3.80;;;;;;;23.25;53.09;98066.50;8036090;29;20238;-77
2022/08/02 00:16:51;;;;;;;5.20;3.20;;;;;;;23.24;53.34;98065.69;8326186;23;20238;-79
2022/08/02 00:20:54;;;;;;;8.10;3.50;;;;;;;23.20;53.41;98059.88;8335560;23;20237;-75
2022/08/02 00:24:57;;;;;;;4.50;3.30;;;;;;;23.18;53.28;98056.53;8095979;29;20237;-76
2022/08/02 00:29:01;;;;;;;4.47;3.00;;;;;;;23.12;52.95;98062.41;8096046;29;20532;-76
2022/08/02 00:33:04;;;;;;;4.47;3.13;;;;;;;23.07;53.54;98055.91;8094751;29;20551;-76
2022/08/02 00:37:07;;;;;;;5.60;3.23;;;;;;;23.01;53.32;98052.00;8095884;29;20241;-76
2022/08/02 00:41:15;;;;;;;4.97;3.73;;;;;;;22.96;53.44;98052.44;8095645;29;20237;-76
2022/08/02 00:45:20;;;;;;;3.77;3.20;;;;;;;22.98;53.06;98058.41;8095644;29;20237;-76
2022/08/02 00:49:43;;;;;;;3.67;3.30;;;;;;;23.08;53.17;98063.69;8095474;29;20568;-76
2022/08/02 00:53:45;;;;;;;3.83;3.30;;;;;;;22.92;53.49;98066.88;8066081;29;20234;-77
2022/08/02 00:57:49;;;;;;;5.37;3.20;;;;;;;22.79;53.72;98072.50;8094949;29;20233;-77
2022/08/02 01:01:54;;;;;;;3.33;3.03;;;;;;;22.58;54.41;98071.81;8095252;29;20234;-77
2022/08/02 01:06:00;;;;;;;3.43;3.17;;;;;;;22.64;54.28;98063.38;8095022;29;20229;-77
2022/08/02 01:10:17;;;;;;;4.60;3.57;;;;;;;22.59;54.20;98071.69;8094701;29;20308;-76
2022/08/02 01:14:23;;;;;;;3.53;3.23;;;;;;;22.66;53.93;98069.34;8094849;29;20246;-76
2022/08/02 01:18:31;;;;;;;5.90;3.30;;;;;;;22.67;53.72;98076.25;8094945;29;20237;-77
2022/08/02 01:22:57;;;;;;;5.77;3.50;;;;;;;22.50;54.12;98074.34;8094541;29;20240;-76
2022/08/02 01:27:19;;;;;;;5.20;3.73;;;;;;;22.60;53.50;98078.66;8094356;29;20229;-76
2022/08/02 01:31:27;;;;;;;4.80;4.40;;;;;;;22.63;53.16;98074.88;8094290;29;20241;-76
2022/08/02 01:35:35;;;;;;;9.30;4.23;;;;;;;22.48;53.68;98066.56;8094134;29;20232;-77
2022/08/02 01:39:57;;;;;;;4.53;4.03;;;;;;;22.43;53.64;98072.28;8093867;29;20240;-75
2022/08/02 01:44:01;;;;;;;6.60;4.03;;;;;;;22.40;53.85;98083.09;8094051;29;20241;-76
2022/08/02 01:48:12;;;;;;;4.43;3.97;;;;;;;22.44;53.71;98099.47;8093939;29;20240;-76
2022/08/02 01:52:21;;;;;;;4.30;3.90;;;;;;;22.44;53.50;98097.66;8093996;29;20547;-77
2022/08/02 01:56:24;;;;;;;5.20;4.20;;;;;;;22.43;53.98;98093.38;8093854;29;20234;-77
2022/08/02 02:00:30;;;;;;;4.50;4.10;;;;;;;22.31;54.40;98086.56;8093889;29;20244;-77
2022/08/02 02:04:35;;;;;;;4.67;4.27;;;;;;;22.23;54.72;98083.78;8093638;29;20582;-77
2022/08/02 02:08:40;;;;;;;4.60;4.20;;;;;;;22.17;54.86;98094.88;8093402;29;20237;-77
2022/08/02 02:12:44;;;;;;;4.70;4.30;;;;;;;22.17;54.85;98100.16;8093170;29;20241;-75
2022/08/02 02:16:49;;;;;;;5.93;4.50;;;;;;;22.07;54.74;98094.88;8092917;29;20233;-74
2022/08/02 02:20:55;;;;;;;10.50;4.80;;;;;;;22.04;54.80;98093.31;8093104;29;20249;-75
2022/08/02 02:24:58;;;;;;;4.57;4.17;;;;;;;22.04;54.86;98087.22;8092664;29;20229;-76
2022/08/02 02:29:03;;;;;;;4.90;4.40;;;;;;;21.82;55.83;98091.78;8093056;29;20520;-75
2022/08/02 02:33:07;;;;;;;7.70;4.80;;;;;;;21.89;55.46;98080.69;8092959;29;20244;-75
2022/08/02 02:37:16;;;;;;;5.83;4.87;;;;;;;21.95;55.33;98088.91;8092673;29;20540;-76
2022/08/02 02:41:20;;;;;;;5.17;4.37;;;;;;;21.90;55.27;98079.75;8093183;29;20244;-75
2022/08/02 02:45:23;;;;;;;4.90;4.50;;;;;;;21.83;55.25;98079.44;8092004;29;20546;-77
2022/08/02 02:49:26;;;;;;;4.40;4.00;;;;;;;21.85;54.83;98070.41;8092638;29;20428;-76
2022/08/02 02:53:31;;;;;;;5.23;4.70;;;;;;;21.87;54.80;98072.91;8092577;29;20299;-75
2022/08/02 02:57:54;;;;;;;7.00;4.40;;;;;;;21.80;54.82;98070.00;8091885;29;20249;-77
2022/08/02 03:01:57;;;;;;;5.07;4.57;;;;;;;21.75;55.12;98069.56;8092411;29;20237;-76
2022/08/02 03:06:00;;;;;;;5.33;4.30;;;;;;;21.74;55.44;98077.63;8092508;29;20233;-76
2022/08/02 03:10:18;;;;;;;6.43;4.47;;;;;;;21.65;55.23;98074.00;8092208;29;20244;-76
2022/08/02 03:14:21;;;;;;;5.07;4.50;;;;;;;21.68;55.55;98063.19;8092261;29;20233;-76
2022/08/02 03:18:30;;;;;;;4.80;4.40;;;;;;;21.70;55.30;98065.69;8092442;29;20260;-76
2022/08/02 03:22:33;;;;;;;5.13;4.60;;;;;;;21.67;55.91;98070.25;8092402;29;20433;-76
2022/08/02 03:26:37;;;;;;;5.93;4.33;;;;;;;21.71;55.28;98083.16;8092067;29;20240;-76
2022/08/02 03:30:40;;;;;;;5.10;4.50;;;;;;;21.64;54.82;98085.50;8092120;29;20260;-76
2022/08/02 03:34:43;;;;;;;8.27;4.80;;;;;;;21.57;55.28;98095.75;8092200;29;20245;-76
2022/08/02 03:38:46;;;;;;;4.83;4.13;;;;;;;21.84;54.94;98103.03;8091846;29;20237;-76
2022/08/02 03:42:51;;;;;;;5.33;4.83;;;;;;;21.56;54.58;98099.34;8091561;29;20247;-76
2022/08/02 03:46:54;;;;;;;4.93;4.53;;;;;;;21.45;54.95;98089.72;8091859;29;20233;-76
2022/08/02 03:50:58;;;;;;;5.67;5.10;;;;;;;21.12;56.28;98085.56;8091638;29;20239;-76
2022/08/02 03:55:01;;;;;;;5.10;4.60;;;;;;;21.32;55.70;98090.91;8091866;29;20236;-76
2022/08/02 03:59:09;;;;;;;8.20;5.00;;;;;;;21.33;56.05;98092.59;8096520;29;20245;-76
2022/08/02 04:03:12;;;;;;;4.77;4.37;;;;;;;21.32;55.74;98094.38;8096721;29;20234;-76
2022/08/02 04:07:21;;;;;;;5.30;4.80;;;;;;;21.30;55.92;98093.66;8096212;29;20239;-76
2022/08/02 04:11:44;;;;;;;6.07;5.00;;;;;;;21.26;56.22;98101.00;8096113;29;20238;-76
2022/08/02 04:15:50;;;;;;;7.80;5.60;;;;;;;21.31;56.09;98105.88;8095763;29;20240;-75
2022/08/02 04:19:56;;;;;;;5.50;4.97;;;;;;;21.36;56.07;98119.50;8096013;29;20238;-76
2022/08/02 04:23:59;;;;;;;5.47;4.97;;;;;;;21.38;55.80;98128.09;8095732;29;20430;-76
2022/08/02 04:28:02;;;;;;;6.67;4.77;;;;;;;21.48;56.05;98128.16;8096005;29;20260;-76
2022/08/02 04:32:22;;;;;;;5.70;5.13;;;;;;;21.47;56.13;98129.13;8095719;29;20233;-76
2022/08/02 04:36:25;;;;;;;5.47;4.97;;;;;;;21.51;55.91;98138.44;8095573;29;20244;-76
2022/08/02 04:40:33;;;;;;;8.67;5.37;;;;;;;21.55;56.08;98137.22;8095686;29;20424;-76
2022/08/02 04:44:36;;;;;;;5.37;4.87;;;;;;;21.50;56.12;98142.03;8095221;29;20248;-77
2022/08/02 04:48:40;;;;;;;7.40;5.37;;;;;;;21.58;56.13;98144.84;8095327;29;20233;-76
2022/08/02 04:52:43;;;;;;;7.07;5.20;;;;;;;21.58;55.41;98142.22;8094926;29;20241;-76
2022/08/02 04:56:47;;;;;;;6.17;5.50;;;;;;;21.59;55.79;98137.75;8094760;29;20629;-77
2022/08/02 05:00:50;;;;;;;5.60;5.10;;;;;;;21.64;55.79;98139.03;8095041;29;20554;-76
2022/08/02 05:04:54;;;;;;;6.53;5.07;;;;;;;21.63;55.99;98140.00;8094866;29;20431;-78
2022/08/02 05:08:57;;;;;;;9.40;5.57;;;;;;;21.84;55.52;98145.22;8093911;29;20237;-77
2022/08/02 05:13:00;;;;;;;8.30;5.57;;;;;;;21.91;55.75;98147.28;8094224;29;20246;-77
2022/08/02 05:17:03;;;;;;;7.27;5.60;;;;;;;21.90;55.54;98145.66;8094631;29;20402;-77
2022/08/02 05:21:07;;;;;;;5.40;4.90;;;;;;;22.01;55.48;98142.91;8094152;29;20271;-77
2022/08/02 05:25:10;;;;;;;6.40;5.20;;;;;;;22.17;55.33;98147.63;8094039;29;20247;-77
2022/08/02 05:29:13;;;;;;;6.50;5.70;;;;;;;22.33;55.09;98147.09;8094028;29;20234;-76
2022/08/02 05:33:16;;;;;;;8.77;5.40;;;;;;;22.29;55.52;98148.38;8094064;29;20557;-76
2022/08/02 05:37:20;;;;;;;6.37;5.77;;;;;;;22.37;55.49;98148.50;8093769;29;20230;-76
2022/08/02 05:41:23;;;;;;;7.37;5.53;;;;;;;22.37;55.90;98151.13;8093820;29;20245;-76
2022/08/02 05:45:25;;;;;;;6.67;5.67;;;;;;;22.37;55.51;98152.00;8093573;29;20229;-76
2022/08/02 05:49:28;;;;;;;6.40;5.57;;;;;;;22.69;54.91;98153.50;8092597;29;20433;-76
2022/08/02 05:53:38;;;;;;;6.43;5.17;;;;;;;22.79;54.72;98159.63;8079831;29;20237;-76
2022/08/02 05:57:49;;;;;;;5.57;5.07;;;;;;;22.81;54.67;98159.47;8081262;29;20363;-76
2022/08/02 06:01:56;;;;;;;5.93;5.43;;;;;;;22.95;54.17;98143.19;8076704;29;20237;-76
2022/08/02 06:06:04;;;;;;;6.10;5.50;;;;;;;23.05;54.28;98145.84;8076378;29;20229;-77
2022/08/02 06:10:12;;;;;;;6.70;6.10;;;;;;;22.98;54.57;98148.19;8076612;29;20257;-77
2022/08/02 06:14:15;;;;;;;8.63;5.57;;;;;;;23.18;54.57;98156.91;8076654;29;20241;-76
2022/08/02 06:18:19;;;;;;;6.60;5.43;;;;;;;23.18;54.38;98158.72;8076547;29;20241;-76
2022/08/02 06:22:30;;;;;;;6.40;5.27;;;;;;;23.43;53.71;98150.16;8076814;29;20566;-77
2022/08/02 06:26:41;;;;;;;7.10;5.33;;;;;;;23.49;53.26;98156.69;8074052;29;20234;-77
2022/08/02 06:30:44;;;;;;;5.73;5.23;;;;;;;23.58;53.12;98153.16;8092495;29;20233;-77
2022/08/02 06:34:47;;;;;;;5.47;4.87;;;;;;;23.93;52.60;98162.22;8091878;29;20521;-76
2022/08/02 06:38:56;;;;;;;6.23;4.67;;;;;;;24.06;52.41;98166.31;8083310;29;20247;-77
2022/08/02 06:47:40;;;;;;;7.90;4.77;;;;;;;24.28;52.02;98183.59;8446825;27;20316;-75
2022/08/02 06:51:43;;;;;;;5.27;4.20;;;;;;;24.47;51.82;98178.16;8443052;28;20384;-75
2022/08/02 06:55:46;;;;;;;5.73;4.20;;;;;;;24.47;51.06;98170.22;8442899;28;20224;-75
2022/08/02 06:59:48;;;;;;;5.20;4.70;;;;;;;24.67;50.54;98168.25;8475818;28;20433;-75
2022/08/02 07:03:53;;;;;;;4.03;3.60;;;;;;;25.05;49.48;98170.72;8476231;28;20231;-75
2022/08/02 07:07:58;;;;;;;5.23;4.73;;;;;;;25.07;49.07;98166.09;8476195;28;20429;-75
2022/08/02 07:12:01;;;;;;;5.33;4.30;;;;;;;25.34;48.52;98165.13;8475993;28;20269;-76
2022/08/02 07:16:04;;;;;;;6.47;4.40;;;;;;;25.36;48.12;98165.81;8475637;28;20232;-75
2022/08/02 07:20:10;;;;;;;7.37;4.27;;;;;;;25.54;48.17;98166.56;8475733;28;20669;-75
2022/08/02 07:24:12;;;;;;;4.50;4.10;;;;;;;25.82;46.99;98161.06;8475465;28;20232;-75
2022/08/02 07:28:16;;;;;;;4.83;4.00;;;;;;;26.04;47.21;98166.78;8475572;28;20409;-75
2022/08/02 07:32:28;;;;;;;3.87;3.53;;;;;;;26.48;46.17;98162.06;8475195;28;20241;-75
2022/08/02 07:36:32;;;;;;;4.67;3.97;;;;;;;26.55;46.03;98153.44;8475227;28;20233;-75
2022/08/02 07:40:35;;;;;;;4.47;3.77;;;;;;;26.61;45.25;98160.78;8475338;28;20229;-75
2022/08/02 07:44:38;;;;;;;5.07;3.97;;;;;;;26.93;44.72;98159.94;8474821;28;20240;-76
2022/08/02 07:48:40;;;;;;;5.93;3.50;;;;;;;27.01;44.64;98149.28;8474831;28;20229;-75
2022/08/02 07:52:45;;;;;;;5.10;3.60;;;;;;;26.72;45.56;98153.28;8474628;28;20231;-74
2022/08/02 07:56:48;;;;;;;6.03;3.67;;;;;;;26.72;45.47;98157.78;8463570;28;20423;-77
2022/08/02 08:01:00;;;;;;;7.07;3.37;;;;;;;27.56;43.42;98157.50;8451774;28;20522;-75
2022/08/02 08:05:03;;;;;;;5.63;3.50;;;;;;;27.71;43.41;98163.75;8451534;28;20243;-76
2022/08/02 08:09:07;;;;;;;5.93;3.10;;;;;;;28.06;41.77;98159.81;8451652;28;20228;-76
2022/08/02 08:13:10;;;;;;;3.90;3.20;;;;;;;28.06;41.69;98165.13;8451598;28;20230;-76
2022/08/02 08:17:13;;;;;;;7.20;3.10;;;;;;;28.37;40.89;98160.78;8451196;28;20243;-76
2022/08/02 08:21:16;;;;;;;4.70;3.00;;;;;;;28.44;39.73;98164.38;8451257;28;20232;-76
2022/08/02 08:25:20;;;;;;;3.43;3.10;;;;;;;28.70;40.15;98171.25;8450987;28;20231;-76
2022/08/02 08:29:25;;;;;;;3.33;3.00;;;;;;;28.87;39.44;98167.44;8451151;28;20292;-76
2022/08/02 08:33:28;;;;;;;3.20;2.90;;;;;;;29.02;39.61;98170.94;8450830;28;20231;-76
2022/08/02 08:37:34;;;;;;;4.07;2.87;;;;;;;29.41;37.98;98159.25;8450802;28;20230;-76
2022/08/02 08:41:38;;;;;;;4.87;3.10;;;;;;;29.41;37.86;98159.25;8450598;28;20240;-76
2022/08/02 08:45:41;;;;;;;3.03;2.80;;;;;;;29.54;37.72;98157.78;8450235;28;20430;-76
2022/08/02 08:49:45;;;;;;;4.30;2.57;;;;;;;29.79;37.73;98156.47;8450520;28;20527;-76
2022/08/02 08:53:57;;;;;;;3.33;2.83;;;;;;;30.09;36.80;98151.09;8449696;28;20227;-76
2022/08/02 08:58:02;;;;;;;5.10;2.67;;;;;;;30.18;36.58;98159.84;8450083;28;20415;-77
2022/08/02 09:02:04;;;;;;;6.53;3.33;;;;;;;30.15;36.54;98161.00;8449220;28;20411;-78
2022/08/02 09:06:23;;;;;;;3.93;3.10;;;;;;;30.54;35.52;98164.31;8450460;28;20239;-73
2022/08/02 09:10:37;;;;;;;6.87;2.93;;;;;;;30.86;34.62;98176.31;8448914;28;20230;-76
2022/08/02 09:14:42;;;;;;;3.67;2.40;;;;;;;30.89;34.43;98177.81;8449815;28;20234;-77
2022/08/02 09:18:46;;;;;;;3.70;2.70;;;;;;;31.18;34.16;98169.59;8446566;28;20219;-77
2022/08/02 09:23:05;;;;;;;7.57;3.30;;;;;;;31.31;34.18;98160.03;8442752;28;20250;-76
2022/08/02 09:27:11;;;;;;;5.13;2.80;;;;;;;31.66;31.46;98163.56;8448875;28;20230;-77
2022/08/02 09:31:17;;;;;;;3.43;2.80;;;;;;;31.47;32.61;98157.09;8448856;28;20222;-76
2022/08/02 09:35:33;;;;;;;2.80;2.30;;;;;;;31.96;32.92;98161.41;8448884;28;20257;-76
2022/08/02 09:39:59;;;;;;;3.17;2.83;;;;;;;32.26;32.51;98153.06;8421956;28;20235;-76
2022/08/02 09:44:03;;;;;;;3.43;2.73;;;;;;;32.23;31.54;98158.00;8391290;28;20479;-77
2022/08/02 09:48:10;;;;;;;5.30;3.30;;;;;;;31.77;31.43;98148.75;8389824;28;20238;-77
2022/08/02 09:52:13;;;;;;;3.20;2.90;;;;;;;30.74;32.99;98148.47;8400513;28;20410;-76
2022/08/02 09:56:17;;;;;;;3.37;2.53;;;;;;;31.58;32.55;98144.97;8415092;28;20229;-76
2022/08/02 10:00:52;;;;;;;3.60;2.87;;;;;;;31.52;31.96;98132.41;8415258;28;20228;-76
2022/08/02 10:04:56;;;;;;;5.07;2.70;;;;;;;31.13;31.78;98131.94;8448456;28;20397;-76
2022/08/02 10:09:00;;;;;;;4.63;2.47;;;;;;;30.29;34.05;98129.97;8447733;28;20232;-77
2022/08/02 10:13:03;;;;;;;3.50;2.40;;;;;;;31.75;31.28;98134.75;8447516;28;20227;-77
2022/08/02 10:17:06;;;;;;;3.33;3.00;;;;;;;31.36;31.42;98139.69;8447267;28;20551;-76
2022/08/02 10:21:21;;;;;;;3.27;2.87;;;;;;;31.34;31.40;98135.56;8447202;28;20520;-76
2022/08/02 10:25:24;;;;;;;4.03;2.80;;;;;;;31.01;32.72;98138.84;8447506;28;20240;-76
2022/08/02 10:29:31;;;;;;;4.20;2.50;;;;;;;32.20;30.95;98137.81;8447960;28;20226;-76
2022/08/02 10:33:54;;;;;;;15.30;3.03;;;;;;;32.73;30.33;98131.72;8413291;28;20231;-76
2022/08/02 10:38:02;;;;;;;5.27;2.40;;;;;;;32.66;29.91;98126.34;8413950;28;20231;-77
2022/08/02 10:42:05;;;;;;;3.37;1.90;;;;;;;32.93;28.72;98120.97;8413396;28;20232;-77
2022/08/02 10:46:25;;;;;;;2.93;2.43;;;;;;;33.08;29.15;98121.56;8413616;28;20524;-77
2022/08/02 10:50:55;;;;;;;4.17;2.50;;;;;;;32.46;29.67;98120.13;8414118;28;20539;-76
2022/08/02 10:55:02;;;;;;;4.53;2.60;;;;;;;31.54;30.74;98116.97;8413105;28;20238;-75
2022/08/02 10:59:32;;;;;;;2.40;2.20;;;;;;;31.55;31.29;98107.91;8413731;28;20228;-75
2022/08/02 11:03:39;;;;;;;4.53;2.50;;;;;;;32.42;30.45;98108.97;8413335;28;20403;-75
2022/08/02 11:07:44;;;;;;;5.07;2.40;;;;;;;32.88;29.85;98105.53;8413046;28;20514;-75
2022/08/02 11:12:03;;;;;;;2.93;2.40;;;;;;;33.27;26.76;98098.44;8412637;28;20521;-74
2022/08/02 11:16:06;;;;;;;3.27;2.47;;;;;;;32.66;28.43;98102.22;8412985;28;20243;-77
2022/08/02 11:20:16;;;;;;;4.60;2.63;;;;;;;33.13;28.10;98098.69;8412923;28;20243;-76
2022/08/02 11:24:28;;;;;;;4.67;2.40;;;;;;;33.68;27.02;98085.72;8413134;28;20269;-76
2022/08/02 11:28:32;;;;;;;3.20;2.23;;;;;;;32.65;27.26;98091.72;8413114;28;20241;-77
2022/08/02 11:32:35;;;;;;;5.33;2.57;;;;;;;32.05;28.41;98087.09;8419203;28;20222;-77
2022/08/02 11:36:44;;;;;;;3.00;2.37;;;;;;;32.08;28.27;98091.22;8420048;28;20238;-78
2022/08/02 11:40:48;;;;;;;2.30;2.10;;;;;;;32.78;28.32;98072.13;8418781;28;20232;-79
2022/08/02 11:45:00;;;;;;;5.20;2.00;;;;;;;33.78;27.29;98063.81;8418017;28;20434;-79
2022/08/02 11:49:17;;;;;;;4.10;2.00;;;;;;;34.15;26.32;98064.00;8418331;28;20435;-73
2022/08/02 11:53:20;;;;;;;3.97;2.30;;;;;;;33.34;27.54;98060.88;8418278;28;20233;-73
2022/08/02 11:57:23;;;;;;;3.27;2.30;;;;;;;34.33;26.56;98049.81;8418214;28;20343;-77
2022/08/02 12:01:27;;;;;;;2.60;1.92;;;;;;;33.96;26.20;98047.78;8417836;28;20226;-77
2022/08/02 12:05:31;;;;;;;3.20;2.08;;;;;;;33.93;26.56;98044.69;8417792;28;20233;-77
2022/08/02 12:09:54;;;;;;;2.87;1.90;;;;;;;32.66;27.94;98050.47;8417040;28;20237;-77
2022/08/02 12:13:57;;;;;;;4.23;2.10;;;;;;;32.46;27.93;98047.75;8417367;28;20238;-77
2022/08/02 12:22:25;;;;;;;3.17;2.00;;;;;;;31.73;28.80;98051.16;8411348;28;20247;-77
2022/08/02 12:26:29;;;;;;;3.13;1.97;;;;;;;32.54;28.38;98051.06;8403582;28;20231;-77
2022/08/02 12:30:32;;;;;;;2.37;1.60;;;;;;;32.25;27.52;98046.97;8383902;28;20421;-77
2022/08/02 12:34:36;;;;;;;3.37;1.77;;;;;;;31.71;28.10;98051.34;8383655;28;20443;-77
2022/08/02 12:38:50;;;;;;;8.57;2.50;;;;;;;31.43;28.59;98039.91;8383603;28;20231;-77
2022/08/02 12:42:55;;;;;;;2.63;1.80;;;;;;;31.44;28.94;98041.56;8384052;28;20274;-77
2022/08/02 12:47:00;;;;;;;3.10;1.70;;;;;;;31.14;29.09;98041.81;8383515;28;20241;-77
2022/08/02 12:51:23;;;;;;;2.27;1.87;;;;;;;32.10;28.09;98028.41;8392809;28;20464;-77
2022/08/02 12:55:51;;;;;;;4.00;2.03;;;;;;;32.40;28.88;98027.97;8416787;28;20224;-77
2022/08/02 13:00:05;;;;;;;5.23;2.07;;;;;;;32.17;28.91;98030.25;8415383;28;20247;-77
2022/08/02 13:04:08;;;;;;;7.40;2.27;;;;;;;32.18;29.54;98030.06;8416051;28;20229;-77
2022/08/02 13:08:19;;;;;;;3.20;1.67;;;;;;;32.93;28.01;98029.81;8415779;28;20231;-77
2022/08/02 13:12:22;;;;;;;5.50;1.80;;;;;;;33.09;27.79;98026.66;8415802;28;20224;-79
2022/08/02 13:16:25;;;;;;;1.97;1.50;;;;;;;32.63;28.69;98022.22;8415602;28;20239;-77
2022/08/02 13:20:33;;;;;;;2.60;1.70;;;;;;;31.77;29.14;98030.97;8415376;28;20233;-77
2022/08/02 13:24:37;;;;;;;1.93;1.70;;;;;;;31.43;28.25;98024.66;8415242;28;20235;-77
2022/08/02 13:28:58;;;;;;;2.17;1.67;;;;;;;31.42;29.59;98023.03;8415036;28;20521;-77
2022/08/02 13:33:01;;;;;;;1.60;1.50;;;;;;;31.86;28.01;98015.56;8415140;28;20232;-77
2022/08/02 13:37:04;;;;;;;4.73;1.50;;;;;;;32.59;27.48;98017.50;8417974;28;20238;-78
2022/08/02 13:41:08;;;;;;;1.50;1.40;;;;;;;32.44;27.67;98017.66;8414862;28;20269;-77
2022/08/02 13:45:11;;;;;;;2.27;1.70;;;;;;;32.56;27.20;98004.47;8414520;28;20230;-78
2022/08/02 13:49:17;;;;;;;4.30;1.70;;;;;;;31.86;28.17;98002.16;8414072;28;20242;-77
2022/08/02 13:53:23;;;;;;;2.57;1.70;;;;;;;32.21;27.58;97999.34;8413777;28;20296;-77
2022/08/02 13:57:28;;;;;;;3.83;1.43;;;;;;;32.75;27.50;97986.72;8414554;28;20237;-77
2022/08/02 14:01:33;;;;;;;2.03;1.40;;;;;;;33.10;26.59;97990.78;8414276;28;20216;-78
2022/08/02 14:05:38;;;;;;;2.37;1.50;;;;;;;32.87;26.72;97982.38;8414221;28;20233;-78
2022/08/02 14:09:50;;;;;;;3.30;1.67;;;;;;;32.97;25.28;97993.47;8413168;28;20231;-78
2022/08/02 14:13:55;;;;;;;1.87;1.50;;;;;;;33.28;26.14;97991.94;8413845;28;20523;-77
2022/08/02 14:17:58;;;;;;;3.57;1.53;;;;;;;32.92;26.11;97982.56;8414055;28;20236;-76
2022/08/02 14:22:01;;;;;;;2.27;1.43;;;;;;;33.06;25.75;97976.13;8413601;28;20237;-77
2022/08/02 14:26:13;;;;;;;1.43;1.33;;;;;;;33.23;25.67;97975.69;8413410;28;20229;-76
2022/08/02 14:30:31;;;;;;;4.13;1.30;;;;;;;32.94;25.16;97972.47;8413709;28;20416;-76
2022/08/02 14:34:34;;;;;;;3.83;1.50;;;;;;;33.16;25.51;97970.31;8413249;28;20233;-77
2022/08/02 14:38:36;;;;;;;2.10;1.40;;;;;;;32.70;25.65;97961.38;8413497;28;20510;-75
2022/08/02 14:42:39;;;;;;;1.73;1.30;;;;;;;32.97;24.99;97957.78;8413211;28;20241;-75
2022/08/02 14:46:44;;;;;;;2.30;1.50;;;;;;;32.58;24.74;97964.91;8413224;28;20250;-75
2022/08/02 14:50:47;;;;;;;1.90;1.60;;;;;;;32.68;25.41;97962.63;8413340;28;20237;-74
2022/08/02 14:54:49;;;;;;;1.93;1.13;;;;;;;32.07;25.78;97967.19;8412391;28;20235;-75
2022/08/02 14:58:52;;;;;;;4.13;1.33;;;;;;;31.62;26.31;97968.75;8413189;28;20239;-75
2022/08/02 15:02:57;;;;;;;1.30;1.20;;;;;;;31.70;26.23;97961.38;8413205;28;20235;-75
2022/08/02 15:07:01;;;;;;;1.90;1.40;;;;;;;31.87;25.97;97961.81;8415883;28;20246;-76
2022/08/02 15:11:05;;;;;;;3.90;1.40;;;;;;;31.94;25.90;97959.94;8420305;28;20550;-76
2022/08/02 15:15:08;;;;;;;1.77;1.30;;;;;;;32.17;26.10;97957.94;8419953;28;20240;-76
2022/08/02 15:19:13;;;;;;;1.37;1.00;;;;;;;32.37;25.53;97956.06;8419862;28;20233;-74
2022/08/02 15:23:17;;;;;;;1.93;1.30;;;;;;;32.39;25.34;97951.31;8419417;28;20407;-76
2022/08/02 15:27:21;;;;;;;1.43;1.10;;;;;;;31.99;26.25;97953.97;8419353;28;20245;-75
2022/08/02 15:31:24;;;;;;;2.73;1.20;;;;;;;32.12;25.24;97956.69;8419174;28;20228;-75
2022/08/02 15:35:36;;;;;;;1.30;1.20;;;;;;;31.89;25.62;97957.06;8419507;28;20255;-77
2022/08/02 15:39:39;;;;;;;1.90;1.10;;;;;;;31.91;24.92;97944.31;8418708;28;20230;-77
2022/08/02 15:43:42;;;;;;;4.03;1.23;;;;;;;31.83;25.90;97952.50;8418457;28;20240;-77
2022/08/02 15:48:03;;;;;;;1.40;1.30;;;;;;;31.86;26.33;97949.44;8451657;28;20291;-78
2022/08/02 15:52:07;;;;;;;2.03;1.13;;;;;;;31.68;25.84;97946.53;8451506;28;20239;-77
2022/08/02 15:56:10;;;;;;;1.17;1.03;;;;;;;31.45;25.84;97936.16;8451333;28;20234;-76
2022/08/02 16:00:15;;;;;;;3.67;1.20;;;;;;;31.55;26.12;97950.84;8451412;28;20294;-76
2022/08/02 16:04:20;;;;;;;1.17;1.07;;;;;;;31.49;26.34;97949.00;8451382;28;20504;-76
2022/08/02 16:08:24;;;;;;;3.47;1.20;;;;;;;31.42;25.79;97941.94;8451194;28;20241;-77
2022/08/02 16:12:27;;;;;;;2.70;1.10;;;;;;;31.41;25.77;97942.97;8450892;28;20237;-77
2022/08/02 16:16:35;;;;;;;2.03;1.10;;;;;;;31.31;25.92;97944.16;8450734;28;20290;-77
2022/08/02 16:20:38;;;;;;;4.07;1.17;;;;;;;31.30;25.90;97947.03;8451085;28;20242;-77
2022/08/02 16:24:42;;;;;;;2.57;1.10;;;;;;;31.12;26.17;97950.28;8451081;28;20228;-77
2022/08/02 16:28:45;;;;;;;1.27;0.97;;;;;;;31.17;26.34;97950.50;8451355;28;20425;-77
2022/08/02 16:32:48;;;;;;;1.57;1.10;;;;;;;31.13;26.05;97950.06;8448758;28;20516;-77
2022/08/02 16:36:51;;;;;;;3.60;1.33;;;;;;;31.00;26.49;97952.69;8450593;28;20231;-77
2022/08/02 16:40:55;;;;;;;1.53;1.07;;;;;;;30.99;26.61;97945.69;8450527;28;20237;-77
2022/08/02 16:45:03;;;;;;;1.53;1.10;;;;;;;30.83;26.33;97943.34;8450807;28;20249;-77
2022/08/02 16:49:06;;;;;;;2.90;1.17;;;;;;;30.64;25.88;97936.88;8450478;28;20481;-78
2022/08/02 16:53:29;;;;;;;3.37;1.07;;;;;;;30.49;26.22;97934.31;8449883;28;20230;-78
2022/08/02 16:57:40;;;;;;;1.70;1.43;;;;;;;30.21;26.63;97924.44;8448571;28;20354;-78
2022/08/02 17:02:03;;;;;;;2.13;1.20;;;;;;;30.16;27.10;97933.03;8449133;28;20230;-77
2022/08/02 17:06:19;;;;;;;1.30;1.20;;;;;;;30.07;26.80;97936.03;8449370;28;20250;-78
2022/08/02 17:10:29;;;;;;;1.73;1.00;;;;;;;30.04;26.83;97931.91;8449249;28;20423;-78
2022/08/02 17:14:35;;;;;;;2.70;1.00;;;;;;;29.98;27.56;97938.00;8449347;28;20244;-79
2022/08/02 17:18:56;;;;;;;1.43;1.00;;;;;;;29.87;27.85;97935.88;8448576;28;20295;-78
2022/08/02 17:22:59;;;;;;;1.47;1.10;;;;;;;29.75;27.73;97938.22;8449388;28;20238;-79
2022/08/02 17:27:02;;;;;;;1.83;1.10;;;;;;;29.67;27.97;97933.81;8449174;28;20237;-79
2022/08/02 17:31:08;;;;;;;1.70;1.10;;;;;;;29.62;28.32;97931.72;8443313;28;20243;-79
2022/08/02 17:35:12;;;;;;;1.70;1.00;;;;;;;29.58;28.93;97937.63;8415003;28;20233;-79
2022/08/02 17:39:18;;;;;;;3.57;1.13;;;;;;;29.50;29.06;97930.56;8414991;28;20245;-78
2022/08/02 17:43:22;;;;;;;2.53;0.90;;;;;;;29.44;29.51;97929.47;8432537;28;20221;-79
2022/08/02 17:47:46;;;;;;;2.60;1.10;;;;;;;29.43;29.11;97935.00;8447852;28;20230;-78
2022/08/02 17:52:07;;;;;;;1.27;1.07;;;;;;;29.33;29.11;97945.97;8414286;28;20336;-79
2022/08/02 17:56:30;;;;;;;2.03;1.30;;;;;;;29.32;29.13;97943.50;8414260;28;20226;-79
2022/08/02 18:00:34;;;;;;;2.43;1.27;;;;;;;29.26;29.08;97946.91;8414228;28;20411;-79
2022/08/02 18:04:38;;;;;;;2.73;1.40;;;;;;;29.19;29.73;97952.19;8414336;28;20306;-78
2022/08/02 18:08:42;;;;;;;4.23;1.20;;;;;;;29.12;29.72;97945.91;8413963;28;20234;-78
2022/08/02 18:12:52;;;;;;;2.03;1.70;;;;;;;29.11;30.09;97953.09;8413648;28;20228;-78
2022/08/02 18:16:57;;;;;;;2.77;1.60;;;;;;;29.00;30.64;97958.91;8413679;28;20251;-75
2022/08/02 18:21:02;;;;;;;3.10;1.93;;;;;;;29.01;30.62;97953.34;8413658;28;20237;-76
2022/08/02 18:25:24;;;;;;;2.73;1.57;;;;;;;28.88;30.38;97947.88;8413729;28;20537;-80
2022/08/02 18:29:45;;;;;;;5.07;1.60;;;;;;;28.85;30.92;97961.56;8413584;28;20293;-79
2022/08/02 18:33:49;;;;;;;4.60;3.30;;;;;;;28.75;31.84;97961.84;8413173;28;20230;-75
2022/08/02 18:38:05;;;;;;;3.07;2.13;;;;;;;28.68;31.46;97958.28;8413494;28;20238;-78
2022/08/02 18:42:13;;;;;;;2.73;2.50;;;;;;;28.62;31.65;97954.50;8413071;28;20246;-76
2022/08/02 18:46:19;;;;;;;2.60;2.10;;;;;;;28.50;31.90;97965.75;8412766;28;20241;-75
2022/08/02 18:50:22;;;;;;;8.17;4.67;;;;;;;28.44;32.39;97967.31;8413124;28;20229;-76
2022/08/02 18:54:30;;;;;;;8.77;3.17;;;;;;;28.33;33.11;97963.28;8413043;28;20236;-76
2022/08/02 18:58:35;;;;;;;5.43;3.77;;;;;;;28.23;33.58;97974.16;8413459;28;20400;-76
2022/08/02 19:02:38;;;;;;;7.33;3.07;;;;;;;28.16;33.96;97972.41;8414834;28;20250;-75
2022/08/02 19:06:41;;;;;;;8.77;3.50;;;;;;;28.09;34.78;97977.63;8414107;28;20279;-72
2022/08/02 19:10:47;;;;;;;6.73;2.00;;;;;;;28.04;34.88;97985.31;8413200;28;20234;-76
2022/08/02 19:14:51;;;;;;;5.87;1.90;;;;;;;27.97;35.24;97984.34;8419850;28;20249;-75
2022/08/02 19:18:54;;;;;;;6.83;2.90;;;;;;;27.88;35.17;97987.09;8413096;28;20238;-76
2022/08/02 19:22:57;;;;;;;13.00;3.27;;;;;;;27.86;35.57;97988.25;8412668;28;20249;-74
2022/08/02 19:27:02;;;;;;;13.80;2.90;;;;;;;27.80;35.01;97986.31;8412531;28;20237;-75
2022/08/02 19:31:16;;;;;;;18.97;3.07;;;;;;;27.71;35.32;97993.50;8412195;28;20297;-75